createdAt,value
2017-12-28T00:00:27.751Z,1.40
2017-12-28T00:02:56.006Z,0.98
2017-12-28T00:05:23.530Z,1.95
2017-12-28T00:07:51.794Z,1.00
2017-12-28T00:10:19.287Z,1.48
2017-12-28T00:12:46.810Z,1.10
2017-12-28T00:15:15.089Z,1.50
2017-12-28T00:17:42.611Z,1.00
2017-12-28T00:20:10.106Z,1.00
2017-12-28T00:22:37.641Z,1.30
2017-12-28T00:25:05.141Z,1.10
2017-12-28T00:27:33.392Z,1.00
2017-12-28T00:30:00.910Z,1.10
2017-12-28T00:32:29.170Z,1.30
2017-12-28T00:34:56.680Z,1.27
2017-12-28T00:37:24.163Z,1.50
2017-12-28T00:39:52.609Z,1.20
2017-12-28T00:42:20.125Z,1.42
2017-12-28T00:44:47.655Z,1.35
2017-12-28T00:47:15.933Z,1.10
2017-12-28T00:49:43.432Z,1.48
2017-12-28T00:52:11.712Z,1.08
2017-12-28T00:54:39.199Z,0.90
2017-12-28T00:57:06.691Z,1.20
2017-12-28T00:59:34.196Z,1.20
2017-12-28T01:02:01.676Z,1.00
2017-12-28T01:04:29.194Z,1.15
2017-12-28T01:06:56.705Z,1.00
2017-12-28T01:09:24.204Z,1.00
2017-12-28T01:11:52.485Z,1.00
2017-12-28T01:14:19.986Z,1.00
2017-12-28T01:16:48.268Z,0.80
2017-12-28T01:19:15.756Z,1.12
2017-12-28T01:21:43.260Z,1.17
2017-12-28T01:24:11.524Z,0.90
2017-12-28T01:26:39.012Z,1.10
2017-12-28T01:29:06.537Z,0.80
2017-12-28T01:31:34.041Z,0.90
2017-12-28T01:34:01.541Z,1.25
2017-12-28T01:36:29.054Z,1.17
2017-12-28T01:38:56.548Z,0.80
2017-12-28T01:41:24.828Z,0.90
2017-12-28T01:43:52.318Z,1.17
2017-12-28T01:46:20.585Z,1.25
2017-12-28T01:48:48.096Z,1.10
2017-12-28T01:51:15.588Z,1.00
2017-12-28T01:53:43.106Z,1.00
2017-12-28T01:56:10.616Z,1.00
2017-12-28T01:58:41.149Z,1.30
2017-12-28T02:01:08.666Z,1.40
2017-12-28T02:03:36.173Z,1.20
2017-12-28T02:06:04.461Z,1.37
2017-12-28T02:08:31.951Z,1.20
2017-12-28T02:10:59.465Z,1.33
2017-12-28T02:13:26.999Z,1.12
2017-12-28T02:15:54.497Z,1.17
2017-12-28T02:18:22.057Z,1.05
2017-12-28T02:20:49.568Z,1.10
2017-12-28T02:23:17.059Z,1.40
2017-12-28T02:25:45.315Z,1.10
2017-12-28T02:28:12.831Z,1.08
2017-12-28T02:30:40.337Z,1.40
2017-12-28T02:33:08.624Z,1.00
2017-12-28T02:35:36.881Z,1.02
2017-12-28T02:38:04.388Z,1.20
2017-12-28T02:40:31.910Z,1.08
2017-12-28T02:42:59.400Z,0.90
2017-12-28T02:45:27.777Z,2.00
2017-12-28T02:47:56.041Z,1.00
2017-12-28T02:50:23.540Z,0.80
2017-12-28T02:52:51.109Z,0.90
2017-12-28T02:55:18.665Z,1.00
2017-12-28T02:57:46.185Z,1.27
2017-12-28T03:00:13.684Z,1.30
2017-12-28T03:02:41.201Z,1.20
2017-12-28T03:05:08.716Z,0.75
2017-12-28T03:07:36.212Z,0.70
2017-12-28T03:10:03.737Z,0.80
2017-12-28T03:12:31.232Z,0.70
2017-12-28T03:15:02.064Z,0.60
2017-12-28T03:17:29.576Z,0.70
2017-12-28T03:19:57.836Z,0.70
2017-12-28T03:22:25.349Z,0.70
2017-12-28T03:24:52.861Z,0.80
2017-12-28T03:27:20.347Z,0.70
2017-12-28T03:29:48.623Z,0.70
2017-12-28T03:32:16.886Z,0.70
2017-12-28T03:34:45.175Z,0.60
2017-12-28T03:37:13.433Z,0.70
2017-12-28T03:39:41.705Z,0.60
2017-12-28T03:42:09.220Z,0.60
2017-12-28T03:44:36.717Z,0.60
2017-12-28T03:47:04.233Z,0.60
2017-12-28T03:49:31.732Z,0.68
2017-12-28T03:51:59.235Z,0.55
2017-12-28T03:54:26.764Z,0.60
2017-12-28T03:56:54.297Z,0.70
2017-12-28T03:59:21.811Z,0.50
2017-12-28T04:01:49.305Z,0.60
2017-12-28T04:04:16.816Z,0.57
2017-12-28T04:06:45.072Z,0.50
2017-12-28T04:09:12.577Z,0.60
2017-12-28T04:11:40.092Z,0.60
2017-12-28T04:14:07.602Z,0.50
2017-12-28T04:16:35.111Z,0.60
2017-12-28T04:19:02.595Z,0.50
2017-12-28T04:21:30.842Z,0.50
2017-12-28T04:23:58.345Z,0.85
2017-12-28T04:26:25.831Z,0.50
2017-12-28T04:28:53.334Z,0.43
2017-12-28T04:31:20.818Z,0.55
2017-12-28T04:33:48.308Z,0.60
2017-12-28T04:36:15.811Z,0.50
2017-12-28T04:38:44.062Z,0.50
2017-12-28T04:41:11.563Z,0.60
2017-12-28T04:43:39.806Z,0.50
2017-12-28T04:46:07.290Z,0.57
2017-12-28T04:48:35.564Z,0.50
2017-12-28T04:51:03.823Z,0.60
2017-12-28T04:53:31.330Z,0.60
2017-12-28T04:55:58.819Z,0.60
2017-12-28T04:58:26.323Z,0.60
2017-12-28T05:00:54.608Z,0.60
2017-12-28T05:03:22.860Z,0.50
2017-12-28T05:05:50.369Z,0.60
2017-12-28T05:08:17.859Z,0.60
2017-12-28T05:10:45.367Z,0.50
2017-12-28T05:13:13.627Z,0.60
2017-12-28T05:15:41.944Z,0.50
2017-12-28T05:18:09.456Z,0.60
2017-12-28T05:20:36.947Z,0.60
2017-12-28T05:23:04.459Z,0.70
2017-12-28T05:25:31.953Z,0.70
2017-12-28T05:28:00.227Z,0.77
2017-12-28T05:30:28.485Z,1.30
2017-12-28T05:32:56.004Z,0.70
2017-12-28T05:35:23.505Z,0.80
2017-12-28T05:37:50.996Z,0.73
2017-12-28T05:40:18.512Z,0.65
2017-12-28T05:42:46.007Z,0.82
2017-12-28T05:45:14.284Z,0.70
2017-12-28T05:47:42.543Z,0.68
2017-12-28T05:50:10.054Z,0.80
2017-12-28T05:52:37.545Z,1.10
2017-12-28T05:55:05.036Z,0.70
2017-12-28T05:57:33.312Z,0.80
2017-12-28T06:00:00.803Z,0.88
2017-12-28T06:02:28.316Z,0.90
2017-12-28T06:04:55.809Z,1.75
2017-12-28T06:07:23.307Z,0.90
2017-12-28T06:09:50.795Z,1.00
2017-12-28T06:12:19.045Z,0.85
2017-12-28T06:14:46.570Z,0.95
2017-12-28T06:17:14.060Z,0.90
2017-12-28T06:19:41.587Z,1.12
2017-12-28T06:22:09.084Z,0.90
2017-12-28T06:24:36.596Z,1.00
2017-12-28T06:27:04.101Z,0.70
2017-12-28T06:29:31.595Z,0.80
2017-12-28T06:31:59.114Z,1.00
2017-12-28T06:34:26.608Z,0.88
2017-12-28T06:36:54.886Z,0.88
2017-12-28T06:39:23.145Z,0.80
2017-12-28T06:41:50.656Z,0.80
2017-12-28T06:44:18.165Z,1.05
2017-12-28T06:46:45.652Z,0.85
2017-12-28T06:49:13.935Z,0.90
2017-12-28T06:51:42.188Z,0.75
2017-12-28T06:54:09.700Z,0.88
2017-12-28T06:56:37.192Z,0.60
2017-12-28T06:59:04.702Z,0.77
2017-12-28T07:01:32.200Z,0.90
2017-12-28T07:03:59.690Z,0.90
2017-12-28T07:06:27.972Z,0.90
2017-12-28T07:08:56.239Z,0.70
2017-12-28T07:11:23.748Z,0.90
2017-12-28T07:13:51.252Z,0.80
2017-12-28T07:16:18.768Z,1.30
2017-12-28T07:18:46.268Z,1.02
2017-12-28T07:21:13.781Z,1.10
2017-12-28T07:23:41.296Z,1.25
2017-12-28T07:26:09.563Z,1.55
2017-12-28T07:28:37.084Z,1.55
2017-12-28T07:31:04.580Z,1.50
2017-12-28T07:33:32.089Z,1.60
2017-12-28T07:35:59.580Z,1.45
2017-12-28T07:38:27.077Z,1.90
2017-12-28T07:40:55.420Z,1.75
2017-12-28T07:43:22.916Z,1.80
2017-12-28T07:45:51.196Z,1.55
2017-12-28T07:48:19.452Z,2.50
2017-12-28T07:50:46.967Z,1.60
2017-12-28T07:53:14.459Z,1.73
2017-12-28T07:55:41.948Z,2.20
2017-12-28T07:58:10.278Z,2.30
2017-12-28T08:00:37.734Z,1.87
2017-12-28T08:03:05.252Z,1.60
2017-12-28T08:05:33.080Z,2.10
2017-12-28T08:08:00.609Z,3.10
2017-12-28T08:10:28.108Z,2.67
2017-12-28T08:12:55.594Z,2.70
2017-12-28T08:15:23.863Z,1.92
2017-12-28T08:17:52.121Z,2.03
2017-12-28T08:20:19.685Z,2.83
2017-12-28T08:22:47.176Z,2.22
2017-12-28T08:25:14.694Z,2.15
2017-12-28T08:27:42.196Z,2.80
2017-12-28T08:30:09.702Z,2.40
2017-12-28T08:32:37.216Z,2.10
2017-12-28T08:35:04.748Z,2.72
2017-12-28T08:37:32.268Z,2.40
2017-12-28T08:39:59.753Z,2.28
2017-12-28T08:42:27.264Z,2.20
2017-12-28T08:44:54.758Z,1.92
2017-12-28T08:47:22.883Z,1.92
2017-12-28T08:49:51.153Z,1.98
2017-12-28T08:52:19.416Z,2.53
2017-12-28T08:54:46.927Z,2.58
2017-12-28T08:57:14.416Z,2.87
2017-12-28T08:59:41.919Z,2.30
2017-12-28T09:02:09.409Z,1.95
2017-12-28T09:04:36.926Z,2.00
2017-12-28T09:07:05.200Z,2.72
2017-12-28T09:09:33.460Z,2.62
2017-12-28T09:12:00.979Z,2.92
2017-12-28T09:14:28.474Z,2.00
2017-12-28T09:16:55.989Z,2.78
2017-12-28T09:19:23.488Z,2.53
2017-12-28T09:21:50.981Z,2.30
2017-12-28T09:24:19.267Z,2.20
2017-12-28T09:26:46.772Z,2.10
2017-12-28T09:29:14.283Z,2.20
2017-12-28T09:31:41.781Z,2.65
2017-12-28T09:34:09.300Z,2.33
2017-12-28T09:36:36.791Z,2.42
2017-12-28T09:39:04.321Z,2.22
2017-12-28T09:41:31.820Z,3.20
2017-12-28T09:43:59.318Z,2.58
2017-12-28T09:46:27.606Z,2.53
2017-12-28T09:48:55.866Z,2.20
2017-12-28T09:51:23.377Z,2.00
2017-12-28T09:53:50.872Z,3.87
2017-12-28T09:56:18.382Z,2.85
2017-12-28T09:58:45.884Z,2.80
2017-12-28T10:01:13.395Z,2.67
2017-12-28T10:03:40.910Z,2.90
2017-12-28T10:06:08.424Z,2.42
2017-12-28T10:08:35.936Z,2.70
2017-12-28T10:11:03.432Z,2.00
2017-12-28T10:13:30.920Z,2.22
2017-12-28T10:15:58.436Z,2.22
2017-12-28T10:18:25.944Z,2.83
2017-12-28T10:20:53.452Z,2.33
2017-12-28T10:23:21.709Z,2.55
2017-12-28T10:25:49.216Z,2.28
2017-12-28T10:28:16.715Z,2.08
2017-12-28T10:30:44.206Z,2.85
2017-12-28T10:33:12.502Z,2.00
2017-12-28T10:35:40.004Z,2.58
2017-12-28T10:38:07.544Z,3.10
2017-12-28T10:40:35.040Z,1.92
2017-12-28T10:43:02.528Z,1.50
2017-12-28T10:45:30.801Z,1.87
2017-12-28T10:47:59.066Z,2.10
2017-12-28T10:50:27.348Z,1.73
2017-12-28T10:52:55.600Z,1.87
2017-12-28T10:55:23.117Z,1.40
2017-12-28T10:57:50.604Z,1.10
2017-12-28T11:00:18.096Z,1.80
2017-12-28T11:02:45.619Z,1.90
2017-12-28T11:05:13.105Z,1.60
2017-12-28T11:07:40.617Z,1.58
2017-12-28T11:10:08.107Z,1.30
2017-12-28T11:12:35.599Z,1.75
2017-12-28T11:15:03.875Z,1.73
2017-12-28T11:17:32.136Z,1.75
2017-12-28T11:19:59.646Z,1.35
2017-12-28T11:22:27.140Z,2.25
2017-12-28T11:24:54.652Z,2.22
2017-12-28T11:27:22.136Z,1.75
2017-12-28T11:29:49.648Z,1.77
2017-12-28T11:32:17.909Z,1.83
2017-12-28T11:34:45.408Z,1.80
2017-12-28T11:37:12.919Z,1.90
2017-12-28T11:39:40.417Z,2.40
2017-12-28T11:42:08.691Z,1.83
2017-12-28T11:44:36.189Z,2.00
2017-12-28T11:47:03.692Z,1.80
2017-12-28T11:49:31.199Z,1.80
2017-12-28T11:52:04.275Z,1.52
2017-12-28T11:54:31.792Z,1.73
2017-12-28T11:57:02.151Z,2.03
2017-12-28T11:59:29.663Z,1.70
2017-12-28T12:02:02.844Z,1.60
2017-12-28T12:04:30.853Z,1.55
2017-12-28T12:07:02.925Z,1.52
2017-12-28T12:12:35.824Z,1.80
2017-12-28T12:15:04.108Z,1.45
2017-12-28T12:17:32.359Z,1.40
2017-12-28T12:19:59.876Z,1.12
2017-12-28T12:22:27.371Z,1.23
2017-12-28T12:24:54.876Z,1.25
2017-12-28T12:27:23.148Z,1.20
2017-12-28T12:29:51.407Z,1.27
2017-12-28T12:32:18.918Z,0.90
2017-12-28T12:34:46.531Z,1.45
2017-12-28T12:37:14.814Z,1.48
2017-12-28T12:39:43.080Z,1.35
2017-12-28T12:42:10.577Z,1.27
2017-12-28T12:44:38.091Z,1.35
2017-12-28T12:47:05.581Z,1.30
2017-12-28T12:49:33.190Z,1.60
2017-12-28T12:52:00.683Z,1.30
2017-12-28T12:54:28.172Z,1.40
2017-12-28T12:56:55.678Z,0.98
2017-12-28T12:59:23.174Z,1.12
2017-12-28T13:01:51.451Z,1.25
2017-12-28T13:04:19.723Z,1.30
2017-12-28T13:06:48.015Z,1.00
2017-12-28T13:09:15.506Z,0.98
2017-12-28T13:11:43.009Z,1.40
2017-12-28T13:14:11.288Z,1.30
2017-12-28T13:16:38.781Z,1.00
2017-12-28T13:19:06.298Z,1.17
2017-12-28T13:21:33.788Z,1.12
2017-12-28T13:24:01.296Z,1.67
2017-12-28T13:26:28.791Z,1.52
2017-12-28T13:28:56.329Z,1.40
2017-12-28T13:31:23.840Z,1.40
2017-12-28T13:33:51.327Z,1.30
2017-12-28T13:36:18.840Z,1.65
2017-12-28T13:38:46.331Z,1.85
2017-12-28T13:41:13.855Z,2.08
2017-12-28T13:43:42.112Z,2.33
2017-12-28T13:46:10.376Z,2.40
2017-12-28T13:48:37.892Z,2.28
2017-12-28T13:51:05.383Z,2.40
2017-12-28T13:53:32.890Z,2.70
2017-12-28T13:56:00.385Z,3.35
2017-12-28T13:58:27.900Z,2.72
2017-12-28T14:00:56.165Z,3.25
2017-12-28T14:03:23.656Z,3.40
2017-12-28T14:05:51.170Z,3.80
2017-12-28T14:08:18.663Z,3.62
2017-12-28T14:10:46.943Z,3.45
2017-12-28T14:13:15.208Z,3.62
2017-12-28T14:15:43.507Z,3.65
2017-12-28T14:18:11.444Z,3.15
2017-12-28T14:20:38.932Z,4.53
2017-12-28T14:23:06.447Z,3.45
2017-12-28T14:25:33.952Z,3.40
2017-12-28T14:28:01.478Z,4.05
2017-12-28T14:30:29.083Z,3.75
2017-12-28T14:32:56.592Z,3.87
2017-12-28T14:35:24.084Z,3.15
2017-12-28T14:37:51.591Z,3.40
2017-12-28T14:40:19.084Z,3.70
2017-12-28T14:42:47.340Z,4.32
2017-12-28T14:45:14.861Z,3.47
2017-12-28T14:47:42.352Z,3.62
2017-12-28T14:50:09.872Z,5.25
2017-12-28T14:52:38.639Z,4.78
2017-12-28T14:55:06.952Z,4.95
2017-12-28T14:57:34.443Z,3.55
2017-12-28T15:00:01.928Z,3.95
2017-12-28T15:02:30.208Z,3.65
2017-12-28T15:04:58.475Z,3.45
2017-12-28T15:07:25.993Z,3.42
2017-12-28T15:09:53.485Z,3.15
2017-12-28T15:12:21.032Z,3.95
2017-12-28T15:14:48.537Z,3.72
2017-12-28T15:17:16.038Z,3.37
2017-12-28T15:19:43.550Z,4.00
2017-12-28T15:22:11.090Z,3.90
2017-12-28T15:24:38.586Z,3.00
2017-12-28T15:27:06.117Z,2.87
2017-12-28T15:29:34.381Z,3.00
2017-12-28T15:32:01.897Z,2.75
2017-12-28T15:34:29.393Z,2.65
2017-12-28T15:36:56.912Z,2.72
2017-12-28T15:39:24.411Z,2.72
2017-12-28T15:41:51.923Z,2.37
2017-12-28T15:44:19.416Z,3.30
2017-12-28T15:46:46.920Z,3.03
2017-12-28T15:49:15.200Z,3.12
2017-12-28T15:51:42.688Z,3.33
2017-12-28T15:54:10.217Z,3.35
2017-12-28T15:56:38.473Z,3.90
2017-12-28T15:59:05.976Z,3.65
2017-12-28T16:01:33.492Z,4.68
2017-12-28T16:04:00.992Z,4.25
2017-12-28T16:06:28.512Z,4.10
2017-12-28T16:08:56.004Z,3.53
2017-12-28T16:11:23.525Z,4.60
2017-12-28T16:13:51.027Z,4.50
2017-12-28T16:16:18.556Z,3.97
2017-12-28T16:18:46.096Z,3.78
2017-12-28T16:21:15.755Z,3.47
2017-12-28T16:23:43.252Z,2.95
2017-12-28T16:26:10.748Z,3.65
2017-12-28T16:28:39.055Z,3.70
2017-12-28T16:31:06.550Z,4.10
2017-12-28T16:33:35.652Z,3.87
2017-12-28T16:36:03.140Z,3.70
2017-12-28T16:38:36.329Z,3.28
2017-12-28T16:41:07.441Z,4.10
2017-12-28T16:43:34.962Z,3.53
2017-12-28T16:46:02.461Z,4.45
2017-12-28T16:48:29.970Z,3.90
2017-12-28T16:50:58.240Z,3.67
2017-12-28T16:53:26.505Z,3.40
2017-12-28T16:55:54.024Z,3.92
2017-12-28T16:58:21.546Z,3.08
2017-12-28T17:00:49.071Z,3.60
2017-12-28T17:03:17.344Z,3.37
2017-12-28T17:05:44.873Z,4.25
2017-12-28T17:08:12.372Z,4.18
2017-12-28T17:10:40.430Z,3.50
2017-12-28T17:13:08.510Z,3.58
2017-12-28T17:15:36.012Z,3.62
2017-12-28T17:18:03.535Z,3.62
2017-12-28T17:20:31.043Z,3.60
2017-12-28T17:22:58.569Z,3.72
2017-12-28T17:25:26.830Z,3.60
2017-12-28T17:27:54.331Z,3.80
2017-12-28T17:30:21.844Z,3.40
2017-12-28T17:32:49.342Z,3.30
2017-12-28T17:35:16.848Z,3.70
2017-12-28T17:37:44.336Z,2.85
2017-12-28T17:40:12.621Z,3.47
2017-12-28T17:42:40.878Z,3.10
2017-12-28T17:45:08.388Z,3.30
2017-12-28T17:47:35.879Z,3.45
2017-12-28T17:50:03.380Z,2.90
2017-12-28T17:52:31.665Z,2.78
2017-12-28T17:54:59.170Z,3.20
2017-12-28T17:57:26.940Z,3.20
2017-12-28T17:59:54.437Z,4.12
2017-12-28T18:02:22.712Z,3.95
2017-12-28T18:04:51.022Z,3.58
2017-12-28T18:07:18.555Z,3.10
2017-12-28T18:09:47.597Z,3.20
2017-12-28T18:12:15.349Z,3.00
2017-12-28T18:14:42.858Z,4.03
2017-12-28T18:17:10.351Z,3.05
2017-12-28T18:19:37.870Z,3.00
2017-12-28T18:22:05.366Z,3.30
2017-12-28T18:24:32.908Z,3.58
2017-12-28T18:27:01.173Z,3.55
2017-12-28T18:29:28.687Z,2.90
2017-12-28T18:31:56.197Z,2.90
2017-12-28T18:34:24.465Z,3.78
2017-12-28T18:36:51.987Z,3.20
2017-12-28T18:39:22.221Z,3.40
2017-12-28T18:41:49.756Z,3.40
2017-12-28T18:44:17.248Z,2.92
2017-12-28T18:46:44.775Z,3.22
2017-12-28T18:49:12.268Z,3.58
2017-12-28T18:51:39.784Z,3.25
2017-12-28T18:54:07.284Z,3.10
2017-12-28T18:56:34.785Z,3.15
2017-12-28T18:59:03.067Z,3.42
2017-12-28T19:01:31.386Z,3.80
2017-12-28T19:03:59.633Z,3.08
2017-12-28T19:06:27.189Z,2.72
2017-12-28T19:08:54.713Z,3.47
2017-12-28T19:11:22.204Z,3.42
2017-12-28T19:13:49.699Z,3.83
2017-12-28T19:16:17.213Z,3.35
2017-12-28T19:18:45.493Z,3.40
2017-12-28T19:21:13.786Z,3.35
2017-12-28T19:23:41.289Z,3.15
2017-12-28T19:26:08.808Z,3.15
2017-12-28T19:28:36.312Z,3.12
2017-12-28T19:31:03.836Z,3.40
2017-12-28T19:33:31.344Z,3.70
2017-12-28T19:35:58.836Z,3.70
2017-12-28T19:38:26.354Z,3.10
2017-12-28T19:40:53.849Z,3.50
2017-12-28T19:43:22.133Z,3.45
2017-12-28T19:45:49.675Z,3.15
2017-12-28T19:48:17.173Z,3.30
2017-12-28T19:50:44.766Z,3.40
2017-12-28T19:53:15.933Z,3.45
2017-12-28T19:55:44.228Z,2.83
2017-12-28T19:58:12.493Z,3.22
2017-12-28T20:00:40.792Z,3.78
2017-12-28T20:03:11.196Z,3.30
2017-12-28T20:05:39.463Z,3.72
2017-12-28T20:08:09.371Z,2.80
2017-12-28T20:10:36.863Z,2.92
2017-12-28T20:13:05.143Z,3.60
2017-12-28T20:15:36.039Z,5.75
2017-12-28T20:18:03.544Z,7.15
2017-12-28T20:20:33.630Z,6.15
2017-12-28T20:23:01.132Z,5.80
2017-12-28T20:25:30.512Z,4.97
2017-12-28T20:27:58.016Z,7.65
2017-12-28T20:30:25.557Z,3.60
2017-12-28T20:32:53.064Z,6.28
2017-12-28T20:35:23.742Z,2.62
2017-12-28T20:37:51.234Z,5.60
2017-12-28T20:40:21.095Z,2.97
2017-12-28T20:42:49.380Z,2.95
2017-12-28T20:45:18.464Z,2.50
2017-12-28T20:47:46.752Z,4.15
2017-12-28T20:50:15.038Z,4.85
2017-12-28T20:52:43.351Z,2.60
2017-12-28T20:55:10.875Z,5.60
2017-12-28T20:57:41.603Z,4.18
2017-12-28T21:00:12.840Z,4.47
2017-12-28T21:02:41.132Z,4.05
2017-12-28T21:05:09.415Z,4.18
2017-12-28T21:07:36.921Z,4.32
2017-12-28T21:10:06.373Z,4.43
2017-12-28T21:12:34.656Z,3.80
2017-12-28T21:15:04.380Z,3.60
2017-12-28T21:17:31.889Z,3.35
2017-12-28T21:19:59.394Z,2.95
2017-12-28T21:22:26.906Z,2.72
2017-12-28T21:24:54.413Z,2.95
2017-12-28T21:27:21.947Z,3.20
2017-12-28T21:29:50.212Z,2.60
2017-12-28T21:32:17.708Z,3.28
2017-12-28T21:34:45.234Z,2.33
2017-12-28T21:37:12.734Z,2.35
2017-12-28T21:39:40.269Z,2.83
2017-12-28T21:42:08.521Z,2.53
2017-12-28T21:44:36.013Z,3.10
2017-12-28T21:47:04.292Z,2.50
2017-12-28T21:49:33.767Z,2.33
2017-12-28T21:52:01.294Z,2.90
2017-12-28T21:54:28.798Z,2.25
2017-12-28T21:56:57.189Z,2.45
2017-12-28T21:59:25.460Z,2.50
2017-12-28T22:01:53.758Z,2.65
2017-12-28T22:04:21.256Z,2.25
2017-12-28T22:06:48.759Z,2.40
2017-12-28T22:09:17.057Z,2.97
2017-12-28T22:11:44.556Z,2.72
2017-12-28T22:14:12.079Z,2.50
2017-12-28T22:16:39.576Z,3.25
2017-12-28T22:19:07.094Z,4.12
2017-12-28T22:21:34.606Z,3.10
2017-12-28T22:24:02.122Z,3.30
2017-12-28T22:26:29.636Z,3.95
2017-12-28T22:28:57.137Z,3.10
2017-12-28T22:31:24.643Z,3.25
2017-12-28T22:33:52.145Z,3.12
2017-12-28T22:36:19.668Z,3.60
2017-12-28T22:38:47.164Z,2.97
2017-12-28T22:41:14.679Z,3.05
2017-12-28T22:43:42.194Z,2.97
2017-12-28T22:46:09.703Z,2.67
2017-12-28T22:48:37.224Z,2.90
2017-12-28T22:51:04.726Z,3.10
2017-12-28T22:53:32.244Z,2.90
2017-12-28T22:55:59.755Z,3.00
2017-12-28T22:58:28.128Z,2.83
2017-12-28T23:00:55.634Z,3.10
2017-12-28T23:03:23.144Z,2.50
2017-12-28T23:05:50.664Z,3.37
2017-12-28T23:08:18.184Z,3.37
2017-12-28T23:10:46.465Z,3.03
2017-12-28T23:13:14.733Z,2.90
2017-12-28T23:15:43.011Z,3.10
2017-12-28T23:18:11.271Z,2.92
2017-12-28T23:20:38.765Z,3.20
2017-12-28T23:23:06.293Z,3.22
2017-12-28T23:25:34.612Z,3.78
2017-12-28T23:28:02.134Z,2.90
2017-12-28T23:30:29.680Z,3.70
2017-12-28T23:32:57.204Z,3.20
2017-12-28T23:35:24.700Z,3.22
2017-12-28T23:37:52.265Z,2.65
2017-12-28T23:40:19.735Z,3.22
2017-12-28T23:42:47.232Z,2.87
2017-12-28T23:45:14.740Z,3.22
2017-12-28T23:47:42.238Z,3.50
2017-12-28T23:50:09.757Z,3.30
2017-12-28T23:52:37.258Z,3.15
2017-12-28T23:55:04.780Z,3.87
2017-12-28T23:57:32.276Z,2.83
2017-12-28T23:59:59.792Z,3.55
